Terminal Aerodrome Forecast
Issued by NWS Grand Forks, ND

Home | Current Version | Previous Version | Text Only | Print | Product List | Glossary On
Versions: 1 2 3 4 5 6 7 8 9 10 11 12 13 14 15 16 17 18 19 20 21 22 23
803
FTUS43 KFGF 220537
TAFGFK
TAF
KGFK 220537Z 2206/2306 23005KT P6SM SCT200
     FM221200 18009KT P6SM BKN050
     FM221600 18014G22KT P6SM SCT025 BKN040
     FM221900 18015G25KT 2SM -SN BKN015 OVC020
     FM222300 35008KT P6SM BKN025=

USA.gov is the U.S. government's official web portal to all federal, state and local government web resources and services.